Sns 262 — FGA2745 — position and weather

sailwx.info

Track history (hours):
 
Tides and Currents Weather Stations Pressure Air Temp Water Temp Dewpoint Dewpoint Depression Visibility Wind Speed Wind Dir Waves Ship Positions

Sns 262

Last reported at 2016-May-23 08:33 UTC. Time now 2016-May-27 18:12 UTC.
Position N 43°33' E 007°04'.

Length 10 m.

Type: SAR. MMSI: 227008150.

Date/timePositionNaut miles runAvg speedWind from/ knotsBaromVisibWave heightAir tempDewpointWater temp
2016-May-23 08:33N 43°33' E 007°04'2 0.1
2016-May-22 17:27N 43°32' E 007°02'  
2016-May-15 16:07N 43°34' E 007°06'3 5.0
2016-May-15 15:33N 43°36' E 007°08'1 0.8
2016-May-15 14:29N 43°35' E 007°08'0 0.4
2016-May-15 13:32N 43°35' E 007°08'0 0.1
2016-May-15 09:33N 43°35' E 007°08'0 0.0
2016-May-15 08:06N 43°35' E 007°08'0 0.0
2016-May-15 07:30N 43°35' E 007°08'4 3.9
2016-May-15 06:32N 43°33' E 007°04'2 0.2
2016-May-14 15:33N 43°32' E 007°07'3 2.5
2016-May-14 14:25N 43°35' E 007°08'0 0.0
2016-May-14 13:33N 43°35' E 007°08'0 0.0
2016-May-14 12:33N 43°35' E 007°08'0 0.0
2016-May-14 11:33N 43°35' E 007°08'0 0.0
2016-May-14 10:33N 43°35' E 007°08'0 0.0
2016-May-14 09:32N 43°35' E 007°08'0 0.0
2016-May-14 08:33N 43°35' E 007°08'0 0.0
2016-May-14 07:33N 43°35' E 007°08'  
Track history (hours):
 
Tides and Currents Weather Stations Pressure Air Temp Water Temp Dewpoint Dewpoint Depression Visibility Wind Speed Wind Dir Waves Ship Positions

Sns 262

Last reported at 2016-May-23 08:33 UTC. Time now 2016-May-27 18:12 UTC.
Position N 43°33' E 007°04'.

Length 10 m.

Type: SAR. MMSI: 227008150.

Date/timePositionNaut miles runAvg speedWind from/ knotsBaromVisibWave heightAir tempDewpointWater temp
2016-May-23 08:33N 43°33' E 007°04'2 0.1
2016-May-22 17:27N 43°32' E 007°02'  
2016-May-15 16:07N 43°34' E 007°06'3 5.0
2016-May-15 15:33N 43°36' E 007°08'1 0.8
2016-May-15 14:29N 43°35' E 007°08'0 0.4
2016-May-15 13:32N 43°35' E 007°08'0 0.1
2016-May-15 09:33N 43°35' E 007°08'0 0.0
2016-May-15 08:06N 43°35' E 007°08'0 0.0
2016-May-15 07:30N 43°35' E 007°08'4 3.9
2016-May-15 06:32N 43°33' E 007°04'2 0.2
2016-May-14 15:33N 43°32' E 007°07'3 2.5
2016-May-14 14:25N 43°35' E 007°08'0 0.0
2016-May-14 13:33N 43°35' E 007°08'0 0.0
2016-May-14 12:33N 43°35' E 007°08'0 0.0
2016-May-14 11:33N 43°35' E 007°08'0 0.0
2016-May-14 10:33N 43°35' E 007°08'0 0.0
2016-May-14 09:32N 43°35' E 007°08'0 0.0
2016-May-14 08:33N 43°35' E 007°08'0 0.0
2016-May-14 07:33N 43°35' E 007°08'  

Dump ship's entire track history